sensor_id;sensor_type;location;lat;lon;timestamp;pressure;altitude;pressure_sealevel;temperature;humidity
44992;BME280;56865;51.618;7.406;2023-08-06T00:01:00;99767.88;;;25.52;100.00
44992;BME280;56865;51.618;7.406;2023-08-06T00:03:30;99768.78;;;25.51;100.00
44992;BME280;56865;51.618;7.406;2023-08-06T00:06:04;99766.81;;;25.56;100.00
44992;BME280;56865;51.618;7.406;2023-08-06T00:08:37;99766.63;;;25.59;100.00
44992;BME280;56865;51.618;7.406;2023-08-06T00:11:06;99764.34;;;25.71;100.00
44992;BME280;56865;51.618;7.406;2023-08-06T00:13:36;99762.63;;;25.70;100.00
44992;BME280;56865;51.618;7.406;2023-08-06T00:16:09;99760.97;;;25.51;100.00
44992;BME280;56865;51.618;7.406;2023-08-06T00:18:40;99755.56;;;25.37;100.00
44992;BME280;56865;51.618;7.406;2023-08-06T00:21:12;99759.41;;;25.47;100.00
44992;BME280;56865;51.618;7.406;2023-08-06T00:23:45;99755.06;;;25.65;100.00
44992;BME280;56865;51.618;7.406;2023-08-06T00:26:14;99755.28;;;25.60;100.00
44992;BME280;56865;51.618;7.406;2023-08-06T00:28:44;99754.06;;;25.68;100.00
44992;BME280;56865;51.618;7.406;2023-08-06T00:31:14;99750.56;;;25.85;100.00
44992;BME280;56865;51.618;7.406;2023-08-06T00:33:44;99745.44;;;25.66;100.00
44992;BME280;56865;51.618;7.406;2023-08-06T00:36:14;99745.00;;;25.75;100.00
44992;BME280;56865;51.618;7.406;2023-08-06T00:38:46;99747.31;;;25.63;100.00
44992;BME280;56865;51.618;7.406;2023-08-06T00:41:16;99748.66;;;25.71;100.00
44992;BME280;56865;51.618;7.406;2023-08-06T00:43:51;99747.91;;;25.69;100.00
44992;BME280;56865;51.618;7.406;2023-08-06T00:46:24;99740.41;;;25.62;100.00
44992;BME280;56865;51.618;7.406;2023-08-06T00:48:55;99737.19;;;25.57;100.00
44992;BME280;56865;51.618;7.406;2023-08-06T00:51:28;99738.09;;;25.56;100.00
44992;BME280;56865;51.618;7.406;2023-08-06T00:54:00;99730.69;;;25.64;100.00
44992;BME280;56865;51.618;7.406;2023-08-06T00:56:30;99731.31;;;25.70;100.00
44992;BME280;56865;51.618;7.406;2023-08-06T00:59:02;99735.88;;;25.66;100.00
44992;BME280;56865;51.618;7.406;2023-08-06T01:01:35;99730.41;;;25.71;100.00
44992;BME280;56865;51.618;7.406;2023-08-06T01:04:05;99720.97;;;25.68;100.00
44992;BME280;56865;51.618;7.406;2023-08-06T01:06:38;99722.34;;;25.75;100.00
44992;BME280;56865;51.618;7.406;2023-08-06T01:09:15;99718.25;;;25.70;100.00
44992;BME280;56865;51.618;7.406;2023-08-06T01:11:52;99721.56;;;25.73;100.00
44992;BME280;56865;51.618;7.406;2023-08-06T01:14:26;99712.06;;;25.72;100.00
44992;BME280;56865;51.618;7.406;2023-08-06T01:17:00;99717.81;;;25.61;100.00
44992;BME280;56865;51.618;7.406;2023-08-06T01:19:31;99716.00;;;25.63;100.00
44992;BME280;56865;51.618;7.406;2023-08-06T01:22:03;99705.66;;;25.78;100.00
44992;BME280;56865;51.618;7.406;2023-08-06T01:24:33;99704.59;;;25.64;100.00
44992;BME280;56865;51.618;7.406;2023-08-06T01:27:04;99705.16;;;25.36;100.00
44992;BME280;56865;51.618;7.406;2023-08-06T01:29:37;99692.81;;;25.40;100.00
44992;BME280;56865;51.618;7.406;2023-08-06T01:32:08;99688.81;;;25.68;100.00
44992;BME280;56865;51.618;7.406;2023-08-06T01:34:41;99686.69;;;25.41;100.00
44992;BME280;56865;51.618;7.406;2023-08-06T01:37:16;99687.03;;;25.51;100.00
44992;BME280;56865;51.618;7.406;2023-08-06T01:39:46;99683.69;;;25.49;100.00
44992;BME280;56865;51.618;7.406;2023-08-06T01:42:15;99692.50;;;25.46;100.00
44992;BME280;56865;51.618;7.406;2023-08-06T01:44:48;99683.41;;;25.36;100.00
44992;BME280;56865;51.618;7.406;2023-08-06T01:47:19;99681.38;;;25.60;100.00
44992;BME280;56865;51.618;7.406;2023-08-06T01:49:49;99674.34;;;25.78;100.00
44992;BME280;56865;51.618;7.406;2023-08-06T01:52:21;99681.25;;;25.79;100.00
44992;BME280;56865;51.618;7.406;2023-08-06T01:54:51;99681.72;;;25.70;100.00
44992;BME280;56865;51.618;7.406;2023-08-06T01:57:21;99689.38;;;25.90;100.00
44992;BME280;56865;51.618;7.406;2023-08-06T01:59:50;99690.84;;;25.78;100.00
44992;BME280;56865;51.618;7.406;2023-08-06T02:02:20;99681.16;;;25.80;100.00
44992;BME280;56865;51.618;7.406;2023-08-06T02:04:50;99678.56;;;25.80;100.00
44992;BME280;56865;51.618;7.406;2023-08-06T02:07:22;99678.53;;;25.98;100.00
44992;BME280;56865;51.618;7.406;2023-08-06T02:09:52;99682.47;;;25.89;100.00
44992;BME280;56865;51.618;7.406;2023-08-06T02:12:22;99670.50;;;25.85;100.00
44992;BME280;56865;51.618;7.406;2023-08-06T02:14:54;99673.63;;;25.92;100.00
44992;BME280;56865;51.618;7.406;2023-08-06T02:17:24;99673.84;;;25.87;100.00
44992;BME280;56865;51.618;7.406;2023-08-06T02:19:56;99677.47;;;25.85;100.00
44992;BME280;56865;51.618;7.406;2023-08-06T02:22:31;99667.34;;;25.78;100.00
44992;BME280;56865;51.618;7.406;2023-08-06T02:25:00;99675.13;;;25.80;100.00
44992;BME280;56865;51.618;7.406;2023-08-06T02:27:30;99671.16;;;26.06;100.00
44992;BME280;56865;51.618;7.406;2023-08-06T02:30:00;99666.38;;;25.97;100.00
44992;BME280;56865;51.618;7.406;2023-08-06T02:32:31;99672.50;;;25.80;100.00
44992;BME280;56865;51.618;7.406;2023-08-06T02:35:03;99675.81;;;25.84;100.00
44992;BME280;56865;51.618;7.406;2023-08-06T02:37:38;99663.25;;;25.90;100.00
44992;BME280;56865;51.618;7.406;2023-08-06T02:40:08;99661.88;;;25.83;100.00
44992;BME280;56865;51.618;7.406;2023-08-06T02:42:38;99654.28;;;25.78;100.00
44992;BME280;56865;51.618;7.406;2023-08-06T02:45:08;99651.63;;;25.80;100.00
44992;BME280;56865;51.618;7.406;2023-08-06T02:47:38;99650.09;;;25.58;100.00
44992;BME280;56865;51.618;7.406;2023-08-06T02:50:08;99643.50;;;25.69;100.00
44992;BME280;56865;51.618;7.406;2023-08-06T02:52:41;99641.97;;;25.64;100.00
44992;BME280;56865;51.618;7.406;2023-08-06T02:55:10;99635.69;;;25.69;100.00
44992;BME280;56865;51.618;7.406;2023-08-06T02:57:40;99630.91;;;25.59;100.00
44992;BME280;56865;51.618;7.406;2023-08-06T03:00:10;99624.28;;;25.70;100.00
44992;BME280;56865;51.618;7.406;2023-08-06T03:02:40;99624.00;;;25.58;100.00
44992;BME280;56865;51.618;7.406;2023-08-06T03:05:10;99616.84;;;25.46;100.00
44992;BME280;56865;51.618;7.406;2023-08-06T03:07:42;99620.16;;;25.66;100.00
44992;BME280;56865;51.618;7.406;2023-08-06T03:10:12;99619.56;;;25.60;100.00
44992;BME280;56865;51.618;7.406;2023-08-06T03:12:42;99624.91;;;25.75;100.00
44992;BME280;56865;51.618;7.406;2023-08-06T03:15:12;99611.50;;;25.65;100.00
44992;BME280;56865;51.618;7.406;2023-08-06T03:17:42;99604.50;;;25.66;100.00
44992;BME280;56865;51.618;7.406;2023-08-06T03:20:12;99613.03;;;25.69;100.00
44992;BME280;56865;51.618;7.406;2023-08-06T03:22:45;99613.44;;;25.61;100.00
44992;BME280;56865;51.618;7.406;2023-08-06T03:25:15;99603.09;;;25.25;100.00
44992;BME280;56865;51.618;7.406;2023-08-06T03:27:44;99602.53;;;25.53;100.00
44992;BME280;56865;51.618;7.406;2023-08-06T03:30:14;99604.31;;;25.53;100.00
44992;BME280;56865;51.618;7.406;2023-08-06T03:32:44;99609.38;;;25.38;100.00
44992;BME280;56865;51.618;7.406;2023-08-06T03:35:14;99614.06;;;25.49;100.00
44992;BME280;56865;51.618;7.406;2023-08-06T03:37:46;99606.69;;;25.57;100.00
44992;BME280;56865;51.618;7.406;2023-08-06T03:40:16;99606.53;;;25.43;100.00
44992;BME280;56865;51.618;7.406;2023-08-06T03:42:46;99606.78;;;25.38;100.00
44992;BME280;56865;51.618;7.406;2023-08-06T03:45:16;99606.53;;;25.43;100.00
44992;BME280;56865;51.618;7.406;2023-08-06T03:47:45;99607.31;;;25.45;100.00
44992;BME280;56865;51.618;7.406;2023-08-06T03:50:15;99604.91;;;25.58;100.00
44992;BME280;56865;51.618;7.406;2023-08-06T03:52:48;99599.69;;;25.58;100.00
44992;BME280;56865;51.618;7.406;2023-08-06T03:55:17;99595.78;;;25.49;100.00
44992;BME280;56865;51.618;7.406;2023-08-06T03:57:47;99588.50;;;25.38;100.00
44992;BME280;56865;51.618;7.406;2023-08-06T04:00:17;99577.09;;;25.23;100.00
44992;BME280;56865;51.618;7.406;2023-08-06T04:02:46;99589.66;;;25.33;100.00
44992;BME280;56865;51.618;7.406;2023-08-06T04:05:17;99594.41;;;25.42;100.00
44992;BME280;56865;51.618;7.406;2023-08-06T04:07:49;99585.59;;;25.27;100.00
44992;BME280;56865;51.618;7.406;2023-08-06T04:10:18;99596.78;;;25.29;100.00
44992;BME280;56865;51.618;7.406;2023-08-06T04:12:48;99594.28;;;25.27;100.00
44992;BME280;56865;51.618;7.406;2023-08-06T04:15:18;99592.06;;;25.20;100.00
44992;BME280;56865;51.618;7.406;2023-08-06T04:17:48;99590.59;;;25.14;100.00
44992;BME280;56865;51.618;7.406;2023-08-06T04:20:18;99593.97;;;24.98;100.00
44992;BME280;56865;51.618;7.406;2023-08-06T04:22:50;99588.53;;;25.03;100.00
44992;BME280;56865;51.618;7.406;2023-08-06T04:25:22;99595.06;;;24.94;100.00
44992;BME280;56865;51.618;7.406;2023-08-06T04:27:52;99592.44;;;25.12;100.00
44992;BME280;56865;51.618;7.406;2023-08-06T04:30:22;99593.97;;;25.34;100.00
44992;BME280;56865;51.618;7.406;2023-08-06T04:32:52;99604.63;;;25.29;100.00
44992;BME280;56865;51.618;7.406;2023-08-06T04:35:22;99605.13;;;25.37;100.00
44992;BME280;56865;51.618;7.406;2023-08-06T04:37:54;99596.81;;;25.46;100.00
44992;BME280;56865;51.618;7.406;2023-08-06T04:40:24;99590.81;;;25.44;100.00
44992;BME280;56865;51.618;7.406;2023-08-06T04:42:54;99604.94;;;25.40;100.00
44992;BME280;56865;51.618;7.406;2023-08-06T04:45:24;99599.31;;;25.48;100.00
44992;BME280;56865;51.618;7.406;2023-08-06T04:47:54;99596.09;;;25.43;100.00
44992;BME280;56865;51.618;7.406;2023-08-06T04:50:24;99590.44;;;25.17;100.00
44992;BME280;56865;51.618;7.406;2023-08-06T04:52:56;99593.69;;;25.40;100.00
44992;BME280;56865;51.618;7.406;2023-08-06T04:55:28;99592.06;;;25.37;100.00
44992;BME280;56865;51.618;7.406;2023-08-06T04:57:59;99589.19;;;25.24;100.00
44992;BME280;56865;51.618;7.406;2023-08-06T05:00:29;99591.38;;;25.16;100.00
44992;BME280;56865;51.618;7.406;2023-08-06T05:03:01;99592.66;;;25.25;100.00
44992;BME280;56865;51.618;7.406;2023-08-06T05:05:31;99587.97;;;25.14;100.00
44992;BME280;56865;51.618;7.406;2023-08-06T05:08:03;99587.06;;;25.15;100.00
44992;BME280;56865;51.618;7.406;2023-08-06T05:10:33;99592.69;;;25.07;100.00
44992;BME280;56865;51.618;7.406;2023-08-06T05:13:06;99599.94;;;25.18;100.00
44992;BME280;56865;51.618;7.406;2023-08-06T05:15:36;99605.31;;;25.15;100.00
44992;BME280;56865;51.618;7.406;2023-08-06T05:18:08;99604.94;;;25.40;100.00
44992;BME280;56865;51.618;7.406;2023-08-06T05:20:39;99607.59;;;25.56;100.00
44992;BME280;56865;51.618;7.406;2023-08-06T05:23:13;99618.66;;;25.61;100.00
44992;BME280;56865;51.618;7.406;2023-08-06T05:25:46;99616.03;;;25.61;100.00
44992;BME280;56865;51.618;7.406;2023-08-06T05:28:18;99622.25;;;25.59;100.00
44992;BME280;56865;51.618;7.406;2023-08-06T05:30:47;99621.34;;;25.60;100.00
44992;BME280;56865;51.618;7.406;2023-08-06T05:33:17;99618.94;;;25.73;100.00
44992;BME280;56865;51.618;7.406;2023-08-06T05:35:48;99621.44;;;25.74;100.00
44992;BME280;56865;51.618;7.406;2023-08-06T05:38:21;99619.09;;;25.86;100.00
44992;BME280;56865;51.618;7.406;2023-08-06T05:40:51;99618.53;;;25.96;100.00
44992;BME280;56865;51.618;7.406;2023-08-06T05:43:20;99613.88;;;25.86;100.00
44992;BME280;56865;51.618;7.406;2023-08-06T05:45:50;99619.22;;;26.00;100.00
44992;BME280;56865;51.618;7.406;2023-08-06T05:48:20;99620.81;;;26.03;100.00
44992;BME280;56865;51.618;7.406;2023-08-06T05:50:51;99619.13;;;26.02;100.00
44992;BME280;56865;51.618;7.406;2023-08-06T05:53:24;99618.69;;;25.77;100.00
44992;BME280;56865;51.618;7.406;2023-08-06T05:55:54;99624.97;;;25.57;100.00
44992;BME280;56865;51.618;7.406;2023-08-06T05:58:23;99616.09;;;25.93;100.00
44992;BME280;56865;51.618;7.406;2023-08-06T06:00:55;99623.19;;;25.91;100.00
44992;BME280;56865;51.618;7.406;2023-08-06T06:03:26;99621.56;;;25.89;100.00
44992;BME280;56865;51.618;7.406;2023-08-06T06:05:56;99624.16;;;26.06;100.00
44992;BME280;56865;51.618;7.406;2023-08-06T06:08:28;99625.06;;;26.05;100.00
44992;BME280;56865;51.618;7.406;2023-08-06T06:10:58;99625.56;;;26.12;100.00
44992;BME280;56865;51.618;7.406;2023-08-06T06:13:30;99626.94;;;26.19;100.00
44992;BME280;56865;51.618;7.406;2023-08-06T06:16:00;99626.94;;;26.19;100.00
44992;BME280;56865;51.618;7.406;2023-08-06T06:18:30;99621.81;;;26.18;100.00
44992;BME280;56865;51.618;7.406;2023-08-06T06:21:00;99625.38;;;25.99;100.00
44992;BME280;56865;51.618;7.406;2023-08-06T06:23:32;99635.34;;;26.08;100.00
44992;BME280;56865;51.618;7.406;2023-08-06T06:26:03;99632.16;;;26.35;100.00
44992;BME280;56865;51.618;7.406;2023-08-06T06:28:36;99627.00;;;26.34;100.00
44992;BME280;56865;51.618;7.406;2023-08-06T06:31:05;99620.50;;;26.41;100.00
44992;BME280;56865;51.618;7.406;2023-08-06T06:33:36;99623.03;;;26.58;100.00
44992;BME280;56865;51.618;7.406;2023-08-06T06:36:06;99622.75;;;26.79;100.00
44992;BME280;56865;51.618;7.406;2023-08-06T06:38:42;99623.13;;;27.03;100.00
44992;BME280;56865;51.618;7.406;2023-08-06T06:41:11;99628.28;;;27.05;100.00
44992;BME280;56865;51.618;7.406;2023-08-06T06:43:41;99626.19;;;26.96;100.00
44992;BME280;56865;51.618;7.406;2023-08-06T06:46:11;99619.72;;;27.17;100.00
44992;BME280;56865;51.618;7.406;2023-08-06T06:48:40;99621.56;;;27.15;100.00
44992;BME280;56865;51.618;7.406;2023-08-06T06:51:10;99627.00;;;27.12;100.00
44992;BME280;56865;51.618;7.406;2023-08-06T06:53:42;99628.84;;;27.10;100.00
44992;BME280;56865;51.618;7.406;2023-08-06T06:56:12;99630.44;;;26.82;100.00
44992;BME280;56865;51.618;7.406;2023-08-06T06:58:42;99632.63;;;26.74;100.00
44992;BME280;56865;51.618;7.406;2023-08-06T07:01:11;99632.88;;;26.85;100.00
44992;BME280;56865;51.618;7.406;2023-08-06T07:03:41;99635.31;;;26.88;100.00
44992;BME280;56865;51.618;7.406;2023-08-06T07:06:11;99633.09;;;26.97;100.00
44992;BME280;56865;51.618;7.406;2023-08-06T07:08:44;99628.59;;;26.84;100.00
44992;BME280;56865;51.618;7.406;2023-08-06T07:11:15;99628.75;;;26.65;100.00
44992;BME280;56865;51.618;7.406;2023-08-06T07:13:45;99625.66;;;26.58;100.00
44992;BME280;56865;51.618;7.406;2023-08-06T07:16:14;99634.94;;;26.64;100.00
44992;BME280;56865;51.618;7.406;2023-08-06T07:18:44;99630.44;;;26.50;100.00
44992;BME280;56865;51.618;7.406;2023-08-06T07:21:14;99627.56;;;26.87;100.00
44992;BME280;56865;51.618;7.406;2023-08-06T07:23:46;99632.44;;;26.93;100.00
44992;BME280;56865;51.618;7.406;2023-08-06T07:26:16;99634.78;;;26.98;100.00
44992;BME280;56865;51.618;7.406;2023-08-06T07:28:46;99632.22;;;27.12;100.00
44992;BME280;56865;51.618;7.406;2023-08-06T07:31:16;99636.34;;;27.16;100.00
44992;BME280;56865;51.618;7.406;2023-08-06T07:33:46;99639.72;;;27.33;100.00
44992;BME280;56865;51.618;7.406;2023-08-06T07:36:15;99647.22;;;27.24;100.00
44992;BME280;56865;51.618;7.406;2023-08-06T07:38:48;99648.84;;;27.11;100.00
44992;BME280;56865;51.618;7.406;2023-08-06T07:41:22;99656.06;;;27.52;100.00
44992;BME280;56865;51.618;7.406;2023-08-06T07:43:52;99650.44;;;27.44;100.00
44992;BME280;56865;51.618;7.406;2023-08-06T07:46:21;99655.97;;;27.23;100.00
44992;BME280;56865;51.618;7.406;2023-08-06T07:48:51;99654.59;;;27.32;100.00
44992;BME280;56865;51.618;7.406;2023-08-06T07:51:21;99653.47;;;27.36;100.00
44992;BME280;56865;51.618;7.406;2023-08-06T07:53:53;99658.25;;;27.30;100.00
44992;BME280;56865;51.618;7.406;2023-08-06T07:56:25;99662.63;;;26.99;100.00
44992;BME280;56865;51.618;7.406;2023-08-06T07:58:55;99663.69;;;26.64;100.00
44992;BME280;56865;51.618;7.406;2023-08-06T08:01:28;99661.06;;;26.80;100.00
44992;BME280;56865;51.618;7.406;2023-08-06T08:03:57;99658.78;;;26.90;100.00
44992;BME280;56865;51.618;7.406;2023-08-06T08:06:27;99654.13;;;26.95;100.00
44992;BME280;56865;51.618;7.406;2023-08-06T08:09:00;99660.00;;;26.99;100.00
44992;BME280;56865;51.618;7.406;2023-08-06T08:11:32;99663.44;;;27.15;100.00
44992;BME280;56865;51.618;7.406;2023-08-06T08:14:02;99658.94;;;27.17;100.00
44992;BME280;56865;51.618;7.406;2023-08-06T08:16:32;99659.81;;;27.02;100.00
44992;BME280;56865;51.618;7.406;2023-08-06T08:19:02;99661.94;;;27.11;100.00
44992;BME280;56865;51.618;7.406;2023-08-06T08:21:34;99656.22;;;27.04;100.00
44992;BME280;56865;51.618;7.406;2023-08-06T08:24:06;99658.44;;;27.11;100.00
44992;BME280;56865;51.618;7.406;2023-08-06T08:26:36;99653.22;;;27.11;100.00
44992;BME280;56865;51.618;7.406;2023-08-06T08:29:06;99655.94;;;27.09;100.00
44992;BME280;56865;51.618;7.406;2023-08-06T08:31:35;99660.28;;;26.94;100.00
44992;BME280;56865;51.618;7.406;2023-08-06T08:34:06;99660.44;;;27.07;100.00
44992;BME280;56865;51.618;7.406;2023-08-06T08:36:36;99660.78;;;27.01;100.00
44992;BME280;56865;51.618;7.406;2023-08-06T08:39:08;99657.47;;;27.13;100.00
44992;BME280;56865;51.618;7.406;2023-08-06T08:41:38;99655.03;;;26.94;100.00
44992;BME280;56865;51.618;7.406;2023-08-06T08:44:09;99656.69;;;27.11;100.00
44992;BME280;56865;51.618;7.406;2023-08-06T08:46:40;99658.44;;;27.11;100.00
44992;BME280;56865;51.618;7.406;2023-08-06T08:49:10;99653.88;;;27.14;100.00
44992;BME280;56865;51.618;7.406;2023-08-06T08:51:43;99652.13;;;27.45;100.00
44992;BME280;56865;51.618;7.406;2023-08-06T08:54:17;99649.59;;;27.44;100.00
44992;BME280;56865;51.618;7.406;2023-08-06T08:56:48;99653.72;;;27.48;100.00
44992;BME280;56865;51.618;7.406;2023-08-06T08:59:17;99655.19;;;27.52;100.00
44992;BME280;56865;51.618;7.406;2023-08-06T09:01:48;99654.66;;;27.61;100.00
44992;BME280;56865;51.618;7.406;2023-08-06T09:04:22;99653.03;;;27.44;100.00
44992;BME280;56865;51.618;7.406;2023-08-06T09:06:53;99664.94;;;27.50;100.00
44992;BME280;56865;51.618;7.406;2023-08-06T09:09:28;99658.13;;;27.62;100.00
44992;BME280;56865;51.618;7.406;2023-08-06T09:12:00;99659.91;;;27.61;100.00
44992;BME280;56865;51.618;7.406;2023-08-06T09:14:31;99661.88;;;27.57;100.00
44992;BME280;56865;51.618;7.406;2023-08-06T09:17:01;99663.91;;;27.67;100.00
44992;BME280;56865;51.618;7.406;2023-08-06T09:19:31;99669.19;;;27.81;100.00
44992;BME280;56865;51.618;7.406;2023-08-06T09:22:01;99663.28;;;27.78;100.00
44992;BME280;56865;51.618;7.406;2023-08-06T09:24:41;99666.44;;;27.68;100.00
44992;BME280;56865;51.618;7.406;2023-08-06T09:27:11;99671.03;;;27.79;100.00
44992;BME280;56865;51.618;7.406;2023-08-06T09:29:42;99672.91;;;27.92;100.00
44992;BME280;56865;51.618;7.406;2023-08-06T09:32:12;99671.69;;;27.83;100.00
44992;BME280;56865;51.618;7.406;2023-08-06T09:34:43;99668.03;;;27.85;100.00
44992;BME280;56865;51.618;7.406;2023-08-06T09:37:12;99675.72;;;27.74;100.00
44992;BME280;56865;51.618;7.406;2023-08-06T09:39:45;99673.63;;;27.94;100.00
44992;BME280;56865;51.618;7.406;2023-08-06T09:42:15;99675.50;;;27.77;100.00
44992;BME280;56865;51.618;7.406;2023-08-06T09:44:45;99667.66;;;27.92;100.00
44992;BME280;56865;51.618;7.406;2023-08-06T09:47:15;99673.25;;;28.00;100.00
44992;BME280;56865;51.618;7.406;2023-08-06T09:49:46;99672.63;;;27.96;100.00
44992;BME280;56865;51.618;7.406;2023-08-06T09:52:18;99676.91;;;27.97;100.00
44992;BME280;56865;51.618;7.406;2023-08-06T09:54:54;99680.38;;;27.69;100.00
44992;BME280;56865;51.618;7.406;2023-08-06T09:57:24;99683.31;;;27.79;100.00
44992;BME280;56865;51.618;7.406;2023-08-06T09:59:54;99679.19;;;27.89;100.00
44992;BME280;56865;51.618;7.406;2023-08-06T10:02:24;99676.66;;;27.87;100.00
44992;BME280;56865;51.618;7.406;2023-08-06T10:04:56;99674.22;;;27.70;100.00
44992;BME280;56865;51.618;7.406;2023-08-06T10:07:26;99681.97;;;27.86;100.00
44992;BME280;56865;51.618;7.406;2023-08-06T10:09:59;99682.25;;;27.67;100.00
44992;BME280;56865;51.618;7.406;2023-08-06T10:12:29;99682.53;;;27.91;100.00
44992;BME280;56865;51.618;7.406;2023-08-06T10:15:04;99686.19;;;27.88;100.00
44992;BME280;56865;51.618;7.406;2023-08-06T10:17:36;99685.16;;;27.91;100.00
44992;BME280;56865;51.618;7.406;2023-08-06T10:20:16;99682.25;;;27.96;100.00
44992;BME280;56865;51.618;7.406;2023-08-06T10:22:49;99691.16;;;27.93;100.00
44992;BME280;56865;51.618;7.406;2023-08-06T10:25:33;99678.25;;;27.90;100.00
44992;BME280;56865;51.618;7.406;2023-08-06T10:28:07;99684.41;;;27.89;100.00
44992;BME280;56865;51.618;7.406;2023-08-06T10:30:41;99676.84;;;27.70;100.00
44992;BME280;56865;51.618;7.406;2023-08-06T10:33:11;99673.56;;;27.66;100.00
44992;BME280;56865;51.618;7.406;2023-08-06T10:35:43;99676.63;;;27.73;100.00
44992;BME280;56865;51.618;7.406;2023-08-06T10:38:16;99679.66;;;27.81;100.00
44992;BME280;56865;51.618;7.406;2023-08-06T10:41:00;99674.78;;;27.75;100.00
44992;BME280;56865;51.618;7.406;2023-08-06T10:43:31;99682.63;;;27.75;100.00
44992;BME280;56865;51.618;7.406;2023-08-06T10:46:02;99681.78;;;27.74;100.00
44992;BME280;56865;51.618;7.406;2023-08-06T10:48:33;99688.34;;;27.82;100.00
44992;BME280;56865;51.618;7.406;2023-08-06T10:51:05;99681.13;;;27.71;100.00
44992;BME280;56865;51.618;7.406;2023-08-06T10:53:35;99681.88;;;27.73;100.00
44992;BME280;56865;51.618;7.406;2023-08-06T10:56:14;99689.56;;;27.76;100.00
44992;BME280;56865;51.618;7.406;2023-08-06T10:58:44;99681.22;;;27.69;100.00
44992;BME280;56865;51.618;7.406;2023-08-06T11:01:14;99684.41;;;27.74;100.00
44992;BME280;56865;51.618;7.406;2023-08-06T11:03:44;99680.94;;;27.88;100.00
44992;BME280;56865;51.618;7.406;2023-08-06T11:06:17;99686.28;;;28.01;100.00
44992;BME280;56865;51.618;7.406;2023-08-06T11:08:47;99683.66;;;27.87;100.00
44992;BME280;56865;51.618;7.406;2023-08-06T11:11:20;99674.09;;;27.86;100.00
44992;BME280;56865;51.618;7.406;2023-08-06T11:13:50;99686.28;;;28.01;100.00
44992;BME280;56865;51.618;7.406;2023-08-06T11:16:20;99688.53;;;27.93;100.00
44992;BME280;56865;51.618;7.406;2023-08-06T11:18:51;99688.38;;;28.11;100.00
44992;BME280;56865;51.618;7.406;2023-08-06T11:21:23;99681.63;;;28.07;100.00
44992;BME280;56865;51.618;7.406;2023-08-06T11:23:52;99678.97;;;27.92;100.00
44992;BME280;56865;51.618;7.406;2023-08-06T11:26:25;99683.00;;;27.98;100.00
44992;BME280;56865;51.618;7.406;2023-08-06T11:28:55;99679.13;;;28.05;100.00
44992;BME280;56865;51.618;7.406;2023-08-06T11:31:24;99689.19;;;28.11;100.00
44992;BME280;56865;51.618;7.406;2023-08-06T11:33:54;99675.63;;;28.04;100.00
44992;BME280;56865;51.618;7.406;2023-08-06T11:36:33;99677.88;;;28.11;100.00
44992;BME280;56865;51.618;7.406;2023-08-06T11:39:22;99676.69;;;28.16;100.00
44992;BME280;56865;51.618;7.406;2023-08-06T11:41:55;99681.97;;;28.15;100.00
44992;BME280;56865;51.618;7.406;2023-08-06T11:44:26;99676.69;;;28.16;100.00
44992;BME280;56865;51.618;7.406;2023-08-06T11:46:59;99683.50;;;28.19;100.00
44992;BME280;56865;51.618;7.406;2023-08-06T11:49:39;99683.56;;;28.17;100.00
44992;BME280;56865;51.618;7.406;2023-08-06T11:52:12;99680.41;;;28.12;100.00
44992;BME280;56865;51.618;7.406;2023-08-06T11:54:42;99686.56;;;27.97;100.00
44992;BME280;56865;51.618;7.406;2023-08-06T11:57:14;99684.34;;;28.19;100.00
44992;BME280;56865;51.618;7.406;2023-08-06T11:59:44;99684.50;;;28.31;100.00
44992;BME280;56865;51.618;7.406;2023-08-06T12:02:14;99687.94;;;28.31;100.00
44992;BME280;56865;51.618;7.406;2023-08-06T12:07:29;99687.50;;;28.39;100.00
44992;BME280;56865;51.618;7.406;2023-08-06T12:09:59;99681.44;;;28.51;100.00
44992;BME280;56865;51.618;7.406;2023-08-06T12:12:31;99681.81;;;28.60;100.00
44992;BME280;56865;51.618;7.406;2023-08-06T12:15:01;99687.25;;;28.57;100.00
44992;BME280;56865;51.618;7.406;2023-08-06T12:17:31;99680.88;;;28.61;100.00
44992;BME280;56865;51.618;7.406;2023-08-06T12:20:01;99686.06;;;28.48;100.00
44992;BME280;56865;51.618;7.406;2023-08-06T12:22:31;99690.34;;;28.49;100.00
44992;BME280;56865;51.618;7.406;2023-08-06T12:25:02;99693.34;;;28.43;100.00
44992;BME280;56865;51.618;7.406;2023-08-06T12:27:37;99686.78;;;28.50;100.00
44992;BME280;56865;51.618;7.406;2023-08-06T12:30:07;99694.28;;;28.56;100.00
44992;BME280;56865;51.618;7.406;2023-08-06T12:32:37;99703.22;;;28.39;100.00
44992;BME280;56865;51.618;7.406;2023-08-06T12:35:08;99696.41;;;28.22;100.00
44992;BME280;56865;51.618;7.406;2023-08-06T12:37:37;99701.91;;;28.03;100.00
44992;BME280;56865;51.618;7.406;2023-08-06T12:40:09;99695.91;;;28.44;100.00
44992;BME280;56865;51.618;7.406;2023-08-06T12:42:44;99712.81;;;28.67;100.00
44992;BME280;56865;51.618;7.406;2023-08-06T12:45:13;99723.34;;;28.38;100.00
44992;BME280;56865;51.618;7.406;2023-08-06T12:47:44;99732.94;;;28.52;100.00
44992;BME280;56865;51.618;7.406;2023-08-06T12:50:13;99735.56;;;28.52;100.00
44992;BME280;56865;51.618;7.406;2023-08-06T12:52:44;99728.91;;;28.05;100.00
44992;BME280;56865;51.618;7.406;2023-08-06T12:55:13;99735.97;;;28.03;100.00
44992;BME280;56865;51.618;7.406;2023-08-06T12:57:45;99739.78;;;27.97;100.00
44992;BME280;56865;51.618;7.406;2023-08-06T13:00:23;99743.13;;;27.70;100.00
44992;BME280;56865;51.618;7.406;2023-08-06T13:02:53;99742.47;;;27.67;100.00
44992;BME280;56865;51.618;7.406;2023-08-06T13:05:23;99742.16;;;27.57;100.00
44992;BME280;56865;51.618;7.406;2023-08-06T13:07:52;99767.72;;;27.37;100.00
44992;BME280;56865;51.618;7.406;2023-08-06T13:10:30;99753.75;;;26.90;100.00
44992;BME280;56865;51.618;7.406;2023-08-06T13:13:02;99768.59;;;26.74;100.00